Time;durP1;ratioP1;P1;durP2;ratioP2;P2;SDS_P1;SDS_P2;PMS_P1;PMS_P2;Temp;Humidity;BMP_temperature;BMP_pressure;BME280_temperature;BME280_humidity;BME280_pressure;Samples;Min_cycle;Max_cycle;Signal;HPM_P1;HPM_P2
2023/04/20 00:01:51;;;;;;;13.32;5.72;;;;;;;;;;5134771;27;20030;-65
2023/04/20 00:04:17;;;;;;;16.25;5.82;;;;;;;;;;5149354;27;20026;-63
2023/04/20 00:06:43;;;;;;;15.43;5.53;;;;;;;;;;5149283;27;20113;-70
2023/04/20 00:09:11;;;;;;;15.35;5.82;;;;;;;;;;5148644;27;20381;-67
2023/04/20 00:11:37;;;;;;;16.75;6.03;;;;;;;;;;5150032;27;20412;-75
2023/04/20 00:14:03;;;;;;;15.20;6.05;;;;;;;;;;5149346;27;20035;-75
2023/04/20 00:16:28;;;;;;;13.35;6.07;;;;;;;;;;5149277;27;20019;-67
2023/04/20 00:18:54;;;;;;;14.35;6.00;;;;;;;;;;5149305;27;20026;-73
2023/04/20 00:21:22;;;;;;;19.20;6.20;;;;;;;;;;5148893;27;20031;-73
2023/04/20 00:23:48;;;;;;;12.80;5.38;;;;;;;;;;5148982;27;21958;-65
2023/04/20 00:26:14;;;;;;;13.63;5.75;;;;;;;;;;5148961;27;20101;-69
2023/04/20 00:28:39;;;;;;;14.75;5.40;;;;;;;;;;5149769;27;20024;-64
2023/04/20 00:31:05;;;;;;;14.90;5.05;;;;;;;;;;5148955;27;20494;-71
2023/04/20 00:33:30;;;;;;;16.63;5.80;;;;;;;;;;5128928;27;20031;-67
2023/04/20 00:35:55;;;;;;;14.15;5.25;;;;;;;;;;5128322;27;20024;-64
2023/04/20 00:38:21;;;;;;;11.57;5.15;;;;;;;;;;5125188;27;20023;-67
2023/04/20 00:40:51;;;;;;;17.77;5.38;;;;;;;;;;5128299;27;20046;-67
2023/04/20 00:43:18;;;;;;;16.17;5.20;;;;;;;;;;5128047;27;20023;-62
2023/04/20 00:45:45;;;;;;;14.40;5.18;;;;;;;;;;5128354;27;20520;-68
2023/04/20 00:48:11;;;;;;;13.73;5.05;;;;;;;;;;5128242;27;20110;-63
2023/04/20 00:50:37;;;;;;;12.93;5.20;;;;;;;;;;5128209;27;20437;-63
2023/04/20 00:53:03;;;;;;;15.63;4.85;;;;;;;;;;5127824;27;20035;-67
2023/04/20 00:55:29;;;;;;;10.93;4.80;;;;;;;;;;5127774;27;20031;-68
2023/04/20 00:57:56;;;;;;;16.70;5.78;;;;;;;;;;5127742;27;20066;-75
2023/04/20 01:00:21;;;;;;;15.02;5.28;;;;;;;;;;5128119;27;20027;-63
2023/04/20 01:02:47;;;;;;;10.45;5.38;;;;;;;;;;5127714;27;20042;-66
2023/04/20 01:05:13;;;;;;;11.98;5.05;;;;;;;;;;5127641;27;20032;-63
2023/04/20 01:07:38;;;;;;;17.73;5.20;;;;;;;;;;5128193;27;20106;-68
2023/04/20 01:10:07;;;;;;;10.85;5.00;;;;;;;;;;5127743;27;20505;-66
2023/04/20 01:12:33;;;;;;;18.65;5.72;;;;;;;;;;5127441;27;20034;-64
2023/04/20 01:14:58;;;;;;;14.38;5.30;;;;;;;;;;5128282;27;20023;-65
2023/04/20 01:17:24;;;;;;;14.30;4.90;;;;;;;;;;5144887;27;20018;-68
2023/04/20 01:19:50;;;;;;;11.18;5.18;;;;;;;;;;5148550;27;20041;-66
2023/04/20 01:22:17;;;;;;;13.23;5.78;;;;;;;;;;5137056;27;20028;-66
2023/04/20 01:24:43;;;;;;;13.70;4.95;;;;;;;;;;5127896;27;20027;-74
2023/04/20 01:27:08;;;;;;;14.52;4.57;;;;;;;;;;5128274;27;20038;-73
2023/04/20 01:29:34;;;;;;;12.02;5.25;;;;;;;;;;5127517;27;20029;-69
2023/04/20 01:32:00;;;;;;;9.30;4.78;;;;;;;;;;5127335;27;20390;-68
2023/04/20 01:34:25;;;;;;;13.57;4.75;;;;;;;;;;5127473;27;20114;-71
2023/04/20 01:36:51;;;;;;;14.30;5.38;;;;;;;;;;5127367;27;20068;-63
2023/04/20 01:39:16;;;;;;;13.45;5.45;;;;;;;;;;5127182;27;20028;-65
2023/04/20 01:41:42;;;;;;;18.00;6.15;;;;;;;;;;5127683;27;20035;-68
2023/04/20 01:44:07;;;;;;;16.35;6.00;;;;;;;;;;5127970;27;20355;-69
2023/04/20 01:46:37;;;;;;;19.48;6.00;;;;;;;;;;5127405;27;20027;-72
2023/04/20 01:49:02;;;;;;;12.90;5.20;;;;;;;;;;5144106;27;20029;-66
2023/04/20 01:51:28;;;;;;;10.35;5.20;;;;;;;;;;5147754;27;20027;-74
2023/04/20 01:53:53;;;;;;;15.90;5.70;;;;;;;;;;5148258;27;20026;-75
2023/04/20 01:56:19;;;;;;;10.13;5.20;;;;;;;;;;5147795;27;20031;-63
2023/04/20 01:58:44;;;;;;;12.10;5.22;;;;;;;;;;5148323;27;20345;-71
2023/04/20 02:01:09;;;;;;;15.65;5.43;;;;;;;;;;5148516;27;20377;-71
2023/04/20 02:03:35;;;;;;;13.70;5.35;;;;;;;;;;5147986;27;20488;-73
2023/04/20 02:06:00;;;;;;;15.60;5.60;;;;;;;;;;5147698;27;20027;-70
2023/04/20 02:08:26;;;;;;;18.70;6.35;;;;;;;;;;5148600;27;20023;-70
2023/04/20 02:10:51;;;;;;;14.88;5.60;;;;;;;;;;5137790;27;20031;-69
2023/04/20 02:13:16;;;;;;;12.20;5.07;;;;;;;;;;5130843;27;20016;-73
2023/04/20 02:15:42;;;;;;;14.85;5.18;;;;;;;;;;5131287;27;20016;-67
2023/04/20 02:18:07;;;;;;;17.40;5.05;;;;;;;;;;5131622;27;20047;-69
2023/04/20 02:20:33;;;;;;;12.23;4.88;;;;;;;;;;5130428;27;20079;-63
2023/04/20 02:22:58;;;;;;;12.15;5.15;;;;;;;;;;5130909;27;20366;-63
2023/04/20 02:25:24;;;;;;;11.05;4.85;;;;;;;;;;5149646;27;20046;-63
2023/04/20 02:27:50;;;;;;;13.57;5.22;;;;;;;;;;5152030;27;20037;-70
2023/04/20 02:30:15;;;;;;;13.80;5.03;;;;;;;;;;5151494;27;20447;-63
2023/04/20 02:32:41;;;;;;;10.43;4.80;;;;;;;;;;5138395;27;20043;-63
2023/04/20 02:35:07;;;;;;;10.57;4.78;;;;;;;;;;5130768;27;20027;-67
2023/04/20 02:37:33;;;;;;;10.52;5.22;;;;;;;;;;5130366;27;20122;-69
2023/04/20 02:39:58;;;;;;;16.35;5.60;;;;;;;;;;5137098;27;20775;-64
2023/04/20 02:42:24;;;;;;;14.73;5.38;;;;;;;;;;5150806;27;20066;-64
2023/04/20 02:44:51;;;;;;;11.55;5.20;;;;;;;;;;5151518;27;20022;-64
2023/04/20 02:47:17;;;;;;;14.90;5.57;;;;;;;;;;5151029;27;20110;-67
2023/04/20 02:49:43;;;;;;;15.40;5.22;;;;;;;;;;5151221;27;20356;-71
2023/04/20 02:52:08;;;;;;;26.63;11.07;;;;;;;;;;5143943;27;20035;-74
2023/04/20 02:54:33;;;;;;;23.17;9.25;;;;;;;;;;5129785;27;20027;-68
2023/04/20 02:56:59;;;;;;;15.48;6.18;;;;;;;;;;5130233;27;20154;-67
2023/04/20 02:59:25;;;;;;;13.00;6.05;;;;;;;;;;5129918;27;20468;-67
2023/04/20 03:01:51;;;;;;;9.02;4.93;;;;;;;;;;5129853;27;20037;-73
2023/04/20 03:04:16;;;;;;;13.43;5.75;;;;;;;;;;5130772;27;20027;-68
2023/04/20 03:06:42;;;;;;;16.92;6.30;;;;;;;;;;5130123;27;20477;-65
2023/04/20 03:09:08;;;;;;;14.68;5.78;;;;;;;;;;5130618;27;20098;-72
2023/04/20 03:11:33;;;;;;;15.35;6.03;;;;;;;;;;5133186;27;20029;-71
2023/04/20 03:13:59;;;;;;;17.92;5.60;;;;;;;;;;5150819;27;20038;-74
2023/04/20 03:16:24;;;;;;;12.43;6.10;;;;;;;;;;5149430;27;20146;-67
2023/04/20 03:18:50;;;;;;;20.20;6.28;;;;;;;;;;5129773;27;20024;-65
2023/04/20 03:21:15;;;;;;;11.15;5.72;;;;;;;;;;5129562;27;20111;-63
2023/04/20 03:23:41;;;;;;;13.63;6.40;;;;;;;;;;5130081;27;20501;-68
2023/04/20 03:26:06;;;;;;;16.63;6.90;;;;;;;;;;5130252;27;20035;-73
2023/04/20 03:28:32;;;;;;;15.13;6.18;;;;;;;;;;5129725;27;20035;-72
2023/04/20 03:30:58;;;;;;;13.95;6.88;;;;;;;;;;5129657;27;20027;-67
2023/04/20 03:33:23;;;;;;;14.43;6.03;;;;;;;;;;5129503;27;20474;-63
2023/04/20 03:35:49;;;;;;;17.92;6.75;;;;;;;;;;5129878;27;20087;-66
2023/04/20 03:38:14;;;;;;;14.15;6.18;;;;;;;;;;5129117;27;20510;-73
2023/04/20 03:40:40;;;;;;;15.00;5.95;;;;;;;;;;5130010;27;20137;-63
2023/04/20 03:43:05;;;;;;;11.77;5.93;;;;;;;;;;5129887;27;20034;-70
2023/04/20 03:45:30;;;;;;;21.42;6.28;;;;;;;;;;5128966;27;20027;-63
2023/04/20 03:47:56;;;;;;;18.13;6.97;;;;;;;;;;5130195;27;20102;-67
2023/04/20 03:50:21;;;;;;;13.73;5.68;;;;;;;;;;5129327;27;20514;-69
2023/04/20 03:52:47;;;;;;;15.88;6.10;;;;;;;;;;5129092;27;20139;-71
2023/04/20 03:55:12;;;;;;;14.55;5.82;;;;;;;;;;5129157;27;20102;-68
2023/04/20 03:57:37;;;;;;;13.68;6.32;;;;;;;;;;5129995;27;20030;-70
2023/04/20 04:00:03;;;;;;;15.10;6.50;;;;;;;;;;5129251;27;20046;-68
2023/04/20 04:02:30;;;;;;;16.27;7.00;;;;;;;;;;5128807;27;20039;-66
2023/04/20 04:04:55;;;;;;;15.02;7.13;;;;;;;;;;5129293;27;20122;-66
2023/04/20 04:07:21;;;;;;;16.30;6.15;;;;;;;;;;5128684;27;20031;-62
2023/04/20 04:09:47;;;;;;;12.13;6.43;;;;;;;;;;5128753;27;20027;-62
2023/04/20 04:12:12;;;;;;;14.10;6.22;;;;;;;;;;5128735;27;20110;-67
2023/04/20 04:14:38;;;;;;;11.65;6.15;;;;;;;;;;5129212;27;20024;-68
2023/04/20 04:17:03;;;;;;;13.07;6.30;;;;;;;;;;5128943;27;20027;-63
2023/04/20 04:19:29;;;;;;;16.60;6.20;;;;;;;;;;5129124;27;20031;-62
2023/04/20 04:21:54;;;;;;;15.90;6.57;;;;;;;;;;5128716;27;20037;-62
2023/04/20 04:24:20;;;;;;;16.38;6.43;;;;;;;;;;5128432;27;20482;-63
2023/04/20 04:26:46;;;;;;;12.18;6.15;;;;;;;;;;5128906;27;20030;-62
2023/04/20 04:29:11;;;;;;;11.63;6.00;;;;;;;;;;5128268;27;20080;-62
2023/04/20 04:31:37;;;;;;;15.60;7.43;;;;;;;;;;5127958;27;20038;-66
2023/04/20 04:34:02;;;;;;;28.27;13.40;;;;;;;;;;5128604;27;20034;-62
2023/04/20 04:36:28;;;;;;;30.52;14.85;;;;;;;;;;5128495;27;20038;-67
2023/04/20 04:38:53;;;;;;;38.83;17.58;;;;;;;;;;5128740;27;20027;-65
2023/04/20 04:41:19;;;;;;;34.25;14.85;;;;;;;;;;5128363;27;20031;-66
2023/04/20 04:43:46;;;;;;;19.88;9.48;;;;;;;;;;5127591;27;20023;-62
2023/04/20 04:46:13;;;;;;;19.38;7.75;;;;;;;;;;5128120;27;20030;-62
2023/04/20 04:48:42;;;;;;;16.27;8.05;;;;;;;;;;5129096;27;20055;-69
2023/04/20 04:51:08;;;;;;;28.00;12.40;;;;;;;;;;5128696;27;20015;-70
2023/04/20 04:53:34;;;;;;;56.28;20.80;;;;;;;;;;5127927;27;20038;-62
2023/04/20 04:55:59;;;;;;;59.13;22.30;;;;;;;;;;5128040;27;20023;-63
2023/04/20 04:58:25;;;;;;;43.47;16.00;;;;;;;;;;5127697;27;20033;-63
2023/04/20 05:00:51;;;;;;;26.77;11.60;;;;;;;;;;5128060;27;20023;-62
2023/04/20 05:03:16;;;;;;;21.42;8.23;;;;;;;;;;5127729;27;20122;-66
2023/04/20 05:05:42;;;;;;;18.33;8.02;;;;;;;;;;5128369;27;20020;-62
2023/04/20 05:08:07;;;;;;;20.50;8.73;;;;;;;;;;5128310;27;20110;-63
2023/04/20 05:10:33;;;;;;;18.17;8.20;;;;;;;;;;5128221;27;20019;-74
2023/04/20 05:12:59;;;;;;;33.40;12.52;;;;;;;;;;5127851;27;20363;-65
2023/04/20 05:15:25;;;;;;;51.30;17.27;;;;;;;;;;5127955;27;20019;-69
2023/04/20 05:17:50;;;;;;;43.08;13.93;;;;;;;;;;5127900;27;20027;-63
2023/04/20 05:20:16;;;;;;;26.30;10.32;;;;;;;;;;5127762;27;20034;-68
2023/04/20 05:22:41;;;;;;;29.88;10.75;;;;;;;;;;5127854;27;20482;-62
2023/04/20 05:25:07;;;;;;;33.88;11.77;;;;;;;;;;5128486;27;20026;-63
2023/04/20 05:27:33;;;;;;;27.73;10.77;;;;;;;;;;5127518;27;20070;-66
2023/04/20 05:29:59;;;;;;;27.38;11.23;;;;;;;;;;5127685;27;20023;-66
2023/04/20 05:32:24;;;;;;;28.77;9.90;;;;;;;;;;5127213;27;20505;-67
2023/04/20 05:34:49;;;;;;;20.50;8.75;;;;;;;;;;5128011;27;20065;-75
2023/04/20 05:37:15;;;;;;;18.92;7.90;;;;;;;;;;5127411;27;20027;-74
2023/04/20 05:39:41;;;;;;;19.02;7.32;;;;;;;;;;5127851;27;20050;-62
2023/04/20 05:42:06;;;;;;;15.70;7.30;;;;;;;;;;5127874;27;20735;-73
2023/04/20 05:44:32;;;;;;;14.13;6.78;;;;;;;;;;5131440;27;20481;-65
2023/04/20 05:46:58;;;;;;;19.35;7.70;;;;;;;;;;5131897;27;20030;-73
2023/04/20 05:49:24;;;;;;;18.45;7.38;;;;;;;;;;5131149;27;20023;-62
2023/04/20 05:51:50;;;;;;;18.90;6.78;;;;;;;;;;5131639;27;20478;-62
2023/04/20 05:54:16;;;;;;;14.25;5.50;;;;;;;;;;5130973;27;20027;-62
2023/04/20 05:56:41;;;;;;;13.48;6.32;;;;;;;;;;5136988;27;20054;-72
2023/04/20 05:59:07;;;;;;;14.93;6.35;;;;;;;;;;5130586;27;20019;-63
2023/04/20 06:01:33;;;;;;;19.05;7.70;;;;;;;;;;5131141;27;20091;-63
2023/04/20 06:03:58;;;;;;;17.92;7.88;;;;;;;;;;5131642;27;20023;-63
2023/04/20 06:06:24;;;;;;;16.83;7.65;;;;;;;;;;5131270;27;20037;-64
2023/04/20 06:08:49;;;;;;;18.88;7.72;;;;;;;;;;5147185;27;20046;-65
2023/04/20 06:11:15;;;;;;;16.48;8.27;;;;;;;;;;5151004;27;20026;-67
2023/04/20 06:13:41;;;;;;;15.90;8.07;;;;;;;;;;5152034;27;20025;-62
2023/04/20 06:16:08;;;;;;;18.98;8.10;;;;;;;;;;5152472;27;20098;-66
2023/04/20 06:18:35;;;;;;;24.30;8.88;;;;;;;;;;5151595;27;20455;-69
2023/04/20 06:21:00;;;;;;;15.90;7.65;;;;;;;;;;5151931;27;20046;-62
2023/04/20 06:23:26;;;;;;;17.98;7.68;;;;;;;;;;5151705;27;20377;-62
2023/04/20 06:25:52;;;;;;;16.52;8.43;;;;;;;;;;5151705;27;20018;-63
2023/04/20 06:28:17;;;;;;;23.35;8.35;;;;;;;;;;5151426;27;20031;-62
2023/04/20 06:30:43;;;;;;;16.33;7.95;;;;;;;;;;5151763;27;20019;-63
2023/04/20 06:33:08;;;;;;;19.95;8.52;;;;;;;;;;5135286;27;20039;-63
2023/04/20 06:35:34;;;;;;;14.30;7.53;;;;;;;;;;5130654;27;20447;-63
2023/04/20 06:38:01;;;;;;;13.02;8.07;;;;;;;;;;5130763;27;20027;-63
2023/04/20 06:40:27;;;;;;;22.13;11.13;;;;;;;;;;5130566;27;20051;-62
2023/04/20 06:42:53;;;;;;;16.95;8.35;;;;;;;;;;5130567;27;20455;-74
2023/04/20 06:45:19;;;;;;;15.38;8.88;;;;;;;;;;5128967;27;20039;-72
2023/04/20 06:47:44;;;;;;;19.80;8.93;;;;;;;;;;5130581;27;20071;-63
2023/04/20 06:50:10;;;;;;;20.02;9.43;;;;;;;;;;5130893;27;20110;-63
2023/04/20 06:52:36;;;;;;;19.35;10.45;;;;;;;;;;5130593;27;20027;-70
2023/04/20 06:55:02;;;;;;;21.92;10.00;;;;;;;;;;5129407;27;20032;-73
2023/04/20 06:57:27;;;;;;;14.27;7.88;;;;;;;;;;5130244;27;20038;-74
2023/04/20 06:59:53;;;;;;;21.38;10.85;;;;;;;;;;5130268;27;20023;-64
2023/04/20 07:02:18;;;;;;;20.92;8.00;;;;;;;;;;5129997;27;20035;-74
2023/04/20 07:04:44;;;;;;;17.00;8.48;;;;;;;;;;5130442;27;20027;-72
2023/04/20 07:07:10;;;;;;;15.00;8.63;;;;;;;;;;5128186;27;20023;-64
2023/04/20 07:09:35;;;;;;;20.00;7.95;;;;;;;;;;5131898;27;20034;-65
2023/04/20 07:12:01;;;;;;;15.27;7.05;;;;;;;;;;5131139;27;20042;-65
2023/04/20 07:14:27;;;;;;;13.20;6.68;;;;;;;;;;5147332;27;20022;-66
2023/04/20 07:16:53;;;;;;;14.48;6.97;;;;;;;;;;5151866;27;20445;-64
2023/04/20 07:19:18;;;;;;;13.57;6.10;;;;;;;;;;5152257;27;20134;-63
2023/04/20 07:21:44;;;;;;;16.50;7.88;;;;;;;;;;5151512;27;20056;-66
2023/04/20 07:24:09;;;;;;;23.20;8.52;;;;;;;;;;5152089;27;20500;-64
2023/04/20 07:26:34;;;;;;;29.45;13.05;;;;;;;;;;5146540;27;20117;-67
2023/04/20 07:29:00;;;;;;;22.05;9.43;;;;;;;;;;5151276;27;20485;-64
2023/04/20 07:31:25;;;;;;;17.08;8.18;;;;;;;;;;5131413;27;20066;-69
2023/04/20 07:33:51;;;;;;;8.75;5.00;;;;;;;;;;5130570;27;20051;-66
2023/04/20 07:36:16;;;;;;;12.13;6.60;;;;;;;;;;5130514;27;20019;-63
2023/04/20 07:38:42;;;;;;;14.77;6.68;;;;;;;;;;5130388;27;20409;-69
2023/04/20 07:41:10;;;;;;;16.83;8.15;;;;;;;;;;5130862;27;20035;-63
2023/04/20 07:43:37;;;;;;;16.90;9.63;;;;;;;;;;5138589;27;20503;-69
2023/04/20 07:46:03;;;;;;;14.98;7.82;;;;;;;;;;5150705;27;20483;-65
2023/04/20 07:48:29;;;;;;;17.15;7.85;;;;;;;;;;5150650;27;20027;-65
2023/04/20 07:50:54;;;;;;;22.25;9.85;;;;;;;;;;5151151;27;20024;-68
2023/04/20 07:53:20;;;;;;;23.33;10.98;;;;;;;;;;5150446;27;20027;-64
2023/04/20 07:55:45;;;;;;;20.23;10.15;;;;;;;;;;5150957;27;20484;-64
2023/04/20 07:58:13;;;;;;;17.15;7.82;;;;;;;;;;5151234;27;20382;-63
2023/04/20 08:00:38;;;;;;;14.38;8.07;;;;;;;;;;5150897;27;20022;-62
2023/04/20 08:03:04;;;;;;;15.48;9.32;;;;;;;;;;5135107;27;20034;-67
2023/04/20 08:05:29;;;;;;;18.70;10.10;;;;;;;;;;5128514;27;20066;-64
2023/04/20 08:07:55;;;;;;;14.63;7.88;;;;;;;;;;5129986;27;20023;-63
2023/04/20 08:10:20;;;;;;;14.90;7.97;;;;;;;;;;5129679;27;20038;-63
2023/04/20 08:12:46;;;;;;;13.95;8.45;;;;;;;;;;5144075;27;20015;-68
2023/04/20 08:15:13;;;;;;;17.13;7.93;;;;;;;;;;5150683;27;20031;-62
2023/04/20 08:17:38;;;;;;;13.60;7.45;;;;;;;;;;5130398;27;20370;-65
2023/04/20 08:20:05;;;;;;;12.10;7.32;;;;;;;;;;5139305;27;20070;-63
2023/04/20 08:22:31;;;;;;;14.10;7.40;;;;;;;;;;5150091;27;20035;-66
2023/04/20 08:24:56;;;;;;;16.92;7.55;;;;;;;;;;5150648;27;20027;-69
2023/04/20 08:27:22;;;;;;;15.57;7.35;;;;;;;;;;5150200;27;20071;-64
2023/04/20 08:29:47;;;;;;;12.02;7.38;;;;;;;;;;5150528;27;20022;-71
2023/04/20 08:32:14;;;;;;;11.52;7.45;;;;;;;;;;5128516;27;20027;-63
2023/04/20 08:34:40;;;;;;;17.38;7.43;;;;;;;;;;5146898;27;20039;-63
2023/04/20 08:37:06;;;;;;;11.48;7.80;;;;;;;;;;5129546;27;20425;-63
2023/04/20 08:39:31;;;;;;;13.50;7.43;;;;;;;;;;5129187;27;20046;-63
2023/04/20 08:41:57;;;;;;;10.20;6.93;;;;;;;;;;5129647;27;20481;-66
2023/04/20 08:44:23;;;;;;;14.57;7.40;;;;;;;;;;5129355;27;20031;-62
2023/04/20 08:46:49;;;;;;;14.07;8.23;;;;;;;;;;5129420;27;20051;-63
2023/04/20 08:49:16;;;;;;;17.08;9.50;;;;;;;;;;5129621;27;20023;-67
2023/04/20 08:51:45;;;;;;;12.30;7.78;;;;;;;;;;5128607;27;20027;-66
2023/04/20 08:54:11;;;;;;;13.57;7.53;;;;;;;;;;5129673;27;20028;-65
2023/04/20 08:56:39;;;;;;;14.57;7.72;;;;;;;;;;5129196;27;20088;-62
2023/04/20 08:59:08;;;;;;;13.68;7.45;;;;;;;;;;5129278;27;20038;-62
2023/04/20 09:01:34;;;;;;;13.45;7.90;;;;;;;;;;5131400;27;20026;-63
2023/04/20 09:04:00;;;;;;;13.13;7.85;;;;;;;;;;5149797;27;20035;-62
2023/04/20 09:06:26;;;;;;;10.52;7.13;;;;;;;;;;5136911;27;20473;-70
2023/04/20 09:08:53;;;;;;;13.10;7.70;;;;;;;;;;5128959;27;20099;-63
2023/04/20 09:11:28;;;;;;;17.30;8.52;;;;;;;;;;5129143;27;20550;-70
2023/04/20 09:14:05;;;;;;;12.50;7.72;;;;;;;;;;5129157;27;20043;-69
2023/04/20 09:16:33;;;;;;;13.38;7.60;;;;;;;;;;5128870;27;20397;-64
2023/04/20 09:18:59;;;;;;;14.57;9.00;;;;;;;;;;5133911;27;20019;-63
2023/04/20 09:21:30;;;;;;;14.85;7.80;;;;;;;;;;5137509;27;20502;-62
2023/04/20 09:24:00;;;;;;;14.93;8.00;;;;;;;;;;5156639;27;20079;-63
2023/04/20 09:26:26;;;;;;;15.23;7.32;;;;;;;;;;5156525;27;20026;-65
2023/04/20 09:28:52;;;;;;;10.73;6.40;;;;;;;;;;5156385;27;20039;-64
2023/04/20 09:31:21;;;;;;;13.05;6.82;;;;;;;;;;5154915;27;20484;-68
2023/04/20 09:34:00;;;;;;;10.80;6.50;;;;;;;;;;5135312;27;20031;-65
2023/04/20 09:36:41;;;;;;;9.80;6.57;;;;;;;;;;5135711;27;20091;-65
2023/04/20 09:39:11;;;;;;;12.13;7.47;;;;;;;;;;5148249;27;20684;-66
2023/04/20 09:41:39;;;;;;;13.02;7.90;;;;;;;;;;5156780;27;20034;-62
2023/04/20 09:44:06;;;;;;;13.93;7.45;;;;;;;;;;5156185;27;20026;-63
2023/04/20 09:46:34;;;;;;;16.73;8.77;;;;;;;;;;5153293;27;20027;-66
2023/04/20 09:49:01;;;;;;;14.63;9.60;;;;;;;;;;5135232;27;20073;-65
2023/04/20 09:51:27;;;;;;;14.98;8.45;;;;;;;;;;5135598;27;20038;-70
2023/04/20 09:53:59;;;;;;;14.77;8.65;;;;;;;;;;5137117;27;20102;-66
2023/04/20 09:56:26;;;;;;;11.80;8.18;;;;;;;;;;5156209;27;20019;-67
2023/04/20 09:58:53;;;;;;;12.75;7.90;;;;;;;;;;5156201;27;20031;-63
2023/04/20 10:01:19;;;;;;;10.32;7.53;;;;;;;;;;5155621;27;20034;-68
2023/04/20 10:03:45;;;;;;;8.43;6.93;;;;;;;;;;5134703;27;20030;-68
2023/04/20 10:06:24;;;;;;;11.88;7.63;;;;;;;;;;5135559;27;20023;-63
2023/04/20 10:08:51;;;;;;;13.82;7.50;;;;;;;;;;5135737;27;20443;-65
2023/04/20 10:11:43;;;;;;;20.63;7.47;;;;;;;;;;5134821;27;20067;-71
2023/04/20 10:14:16;;;;;;;11.20;7.07;;;;;;;;;;5135845;27;20429;-64
2023/04/20 10:16:42;;;;;;;14.25;7.55;;;;;;;;;;5135465;27;20074;-64
2023/04/20 10:19:08;;;;;;;12.07;7.25;;;;;;;;;;5143574;27;20062;-66
2023/04/20 10:21:45;;;;;;;16.75;7.28;;;;;;;;;;5155650;27;20015;-65
2023/04/20 10:24:10;;;;;;;12.00;6.93;;;;;;;;;;5156635;27;20054;-63
2023/04/20 10:26:37;;;;;;;13.30;7.15;;;;;;;;;;5156019;27;20050;-69
2023/04/20 10:29:03;;;;;;;10.73;7.45;;;;;;;;;;5153292;27;20497;-63
2023/04/20 10:31:39;;;;;;;14.02;7.50;;;;;;;;;;5149178;27;20134;-63
2023/04/20 10:34:06;;;;;;;11.57;7.07;;;;;;;;;;5131859;27;20039;-62
2023/04/20 10:36:36;;;;;;;12.70;7.20;;;;;;;;;;5131526;27;20035;-64
2023/04/20 10:39:21;;;;;;;11.45;7.63;;;;;;;;;;5138879;27;20031;-63
2023/04/20 10:41:57;;;;;;;8.95;6.55;;;;;;;;;;5152853;27;20031;-63
2023/04/20 10:44:23;;;;;;;9.45;6.38;;;;;;;;;;5152538;27;20417;-62
2023/04/20 10:46:49;;;;;;;12.35;7.65;;;;;;;;;;5132164;27;20038;-69
2023/04/20 10:49:15;;;;;;;9.68;6.57;;;;;;;;;;5152533;27;20023;-63
2023/04/20 10:51:51;;;;;;;11.57;7.53;;;;;;;;;;5151969;27;20026;-64
2023/04/20 10:54:17;;;;;;;11.52;7.45;;;;;;;;;;5151941;27;20087;-63
2023/04/20 10:56:47;;;;;;;14.82;7.20;;;;;;;;;;5152158;27;20019;-62
2023/04/20 10:59:18;;;;;;;16.38;7.78;;;;;;;;;;5151853;27;20033;-62
2023/04/20 11:01:44;;;;;;;12.15;7.03;;;;;;;;;;5147326;27;20026;-61
2023/04/20 11:04:13;;;;;;;14.23;7.05;;;;;;;;;;5143538;27;20033;-62
2023/04/20 11:06:41;;;;;;;14.18;7.75;;;;;;;;;;5134156;27;20046;-66
2023/04/20 11:09:19;;;;;;;9.60;6.60;;;;;;;;;;5132974;27;20464;-62
2023/04/20 11:11:45;;;;;;;9.43;7.32;;;;;;;;;;5141494;27;20062;-61
2023/04/20 11:14:11;;;;;;;12.65;7.40;;;;;;;;;;5144362;27;20054;-62
2023/04/20 11:16:37;;;;;;;9.15;6.50;;;;;;;;;;5141471;27;20070;-65
2023/04/20 11:19:04;;;;;;;12.05;7.00;;;;;;;;;;5134162;27;20138;-62
2023/04/20 11:21:37;;;;;;;11.52;6.90;;;;;;;;;;5143385;27;20077;-62
2023/04/20 11:24:04;;;;;;;12.35;6.72;;;;;;;;;;5142917;27;20376;-66
2023/04/20 11:26:37;;;;;;;11.60;7.47;;;;;;;;;;5132567;27;20525;-64
2023/04/20 11:29:02;;;;;;;11.32;7.10;;;;;;;;;;5131452;27;20083;-62
2023/04/20 11:31:28;;;;;;;7.68;6.28;;;;;;;;;;5129640;27;20406;-62
2023/04/20 11:33:54;;;;;;;11.50;6.47;;;;;;;;;;5130432;27;20039;-64
2023/04/20 11:36:25;;;;;;;10.13;6.25;;;;;;;;;;5130458;27;20055;-62
2023/04/20 11:38:51;;;;;;;10.50;6.55;;;;;;;;;;5129952;27;20533;-63
2023/04/20 11:41:17;;;;;;;9.90;6.80;;;;;;;;;;5129575;27;20406;-68
2023/04/20 11:43:43;;;;;;;10.95;6.75;;;;;;;;;;5129684;27;20038;-62
2023/04/20 11:46:17;;;;;;;20.25;7.78;;;;;;;;;;5130430;27;20495;-64
2023/04/20 11:48:43;;;;;;;11.95;7.20;;;;;;;;;;5129716;27;20023;-63
2023/04/20 11:51:08;;;;;;;13.48;6.57;;;;;;;;;;5132052;27;20064;-64
2023/04/20 11:53:34;;;;;;;15.35;9.90;;;;;;;;;;5128504;27;20180;-64
2023/04/20 11:56:00;;;;;;;9.88;7.03;;;;;;;;;;5132544;27;20031;-62
2023/04/20 11:58:25;;;;;;;12.30;8.68;;;;;;;;;;5143958;27;20043;-62
2023/04/20 12:00:50;;;;;;;10.70;6.93;;;;;;;;;;5138348;27;20046;-66
2023/04/20 12:03:16;;;;;;;10.05;6.55;;;;;;;;;;5133113;27;20051;-65
2023/04/20 12:05:42;;;;;;;16.63;7.88;;;;;;;;;;5142317;27;20019;-63
2023/04/20 12:08:08;;;;;;;15.07;9.90;;;;;;;;;;5147847;27;20027;-62
2023/04/20 12:10:33;;;;;;;10.20;6.35;;;;;;;;;;5129728;27;20389;-62
2023/04/20 12:13:00;;;;;;;11.45;6.90;;;;;;;;;;5129987;27;20034;-66
2023/04/20 12:15:26;;;;;;;11.25;6.80;;;;;;;;;;5129954;27;20495;-71
2023/04/20 12:17:52;;;;;;;13.98;6.80;;;;;;;;;;5140712;27;20030;-64
2023/04/20 12:20:17;;;;;;;11.13;6.70;;;;;;;;;;5129536;27;20486;-66
2023/04/20 12:22:43;;;;;;;10.15;6.35;;;;;;;;;;5128081;27;20366;-67
2023/04/20 12:25:09;;;;;;;15.98;6.55;;;;;;;;;;5128277;27;20060;-70
2023/04/20 12:27:34;;;;;;;10.70;7.00;;;;;;;;;;5128697;27;20034;-66
2023/04/20 12:30:00;;;;;;;12.52;6.35;;;;;;;;;;5129789;27;20027;-65
2023/04/20 12:32:25;;;;;;;13.75;7.28;;;;;;;;;;5128420;27;20070;-70
2023/04/20 12:34:51;;;;;;;8.95;6.10;;;;;;;;;;5127677;27;20106;-70
2023/04/20 12:37:16;;;;;;;11.52;6.03;;;;;;;;;;5128503;27;20015;-64
2023/04/20 12:39:42;;;;;;;11.65;6.35;;;;;;;;;;5129158;27;20842;-69
2023/04/20 12:42:07;;;;;;;10.02;6.05;;;;;;;;;;5128064;27;20103;-64
2023/04/20 12:44:33;;;;;;;10.82;6.00;;;;;;;;;;5127688;27;20031;-63
2023/04/20 12:46:59;;;;;;;8.93;6.13;;;;;;;;;;5128810;27;20668;-67
2023/04/20 12:49:24;;;;;;;14.30;6.10;;;;;;;;;;5128753;27;20062;-69
2023/04/20 12:51:50;;;;;;;9.00;5.47;;;;;;;;;;5128383;27;20393;-62
2023/04/20 12:54:16;;;;;;;11.60;5.38;;;;;;;;;;5137519;27;20098;-68
2023/04/20 12:56:41;;;;;;;11.55;5.10;;;;;;;;;;5148978;27;20134;-62
2023/04/20 12:59:07;;;;;;;14.55;5.03;;;;;;;;;;5150519;27;20038;-63
2023/04/20 13:01:33;;;;;;;13.35;5.88;;;;;;;;;;5146814;27;20035;-67
2023/04/20 13:03:58;;;;;;;9.60;5.78;;;;;;;;;;5129162;27;20031;-66
2023/04/20 13:06:24;;;;;;;11.30;5.80;;;;;;;;;;5128675;27;20023;-68
2023/04/20 13:08:49;;;;;;;8.60;5.45;;;;;;;;;;5128854;27;20027;-65
2023/04/20 13:11:16;;;;;;;10.40;5.80;;;;;;;;;;5129056;27;20492;-69
2023/04/20 13:13:42;;;;;;;9.48;5.38;;;;;;;;;;5129042;27;20038;-63
2023/04/20 13:16:08;;;;;;;8.52;5.28;;;;;;;;;;5129431;27;20031;-64
2023/04/20 13:18:33;;;;;;;10.43;5.50;;;;;;;;;;5128529;27;20011;-68
2023/04/20 13:20:59;;;;;;;10.57;5.55;;;;;;;;;;5128715;27;20399;-65
2023/04/20 13:23:24;;;;;;;11.75;5.88;;;;;;;;;;5128467;27;20023;-67
2023/04/20 13:25:50;;;;;;;10.40;5.72;;;;;;;;;;5127185;27;20076;-67
2023/04/20 13:28:16;;;;;;;10.82;5.30;;;;;;;;;;5129475;27;20039;-63
2023/04/20 13:30:42;;;;;;;9.63;4.95;;;;;;;;;;5128334;27;20027;-69
2023/04/20 13:33:08;;;;;;;11.23;5.07;;;;;;;;;;5128721;27;20040;-67
2023/04/20 13:35:33;;;;;;;8.27;4.70;;;;;;;;;;5128601;27;20058;-65
2023/04/20 13:37:59;;;;;;;11.15;5.20;;;;;;;;;;5128390;27;20027;-62
2023/04/20 13:40:24;;;;;;;10.55;4.25;;;;;;;;;;5128534;27;20397;-72
2023/04/20 13:42:50;;;;;;;10.95;4.53;;;;;;;;;;5128616;27;20030;-70
2023/04/20 13:45:15;;;;;;;9.85;4.72;;;;;;;;;;5128490;27;20038;-68
2023/04/20 13:47:41;;;;;;;8.05;4.20;;;;;;;;;;5128959;27;20031;-65
2023/04/20 13:50:07;;;;;;;9.85;4.60;;;;;;;;;;5129258;27;20581;-67
2023/04/20 13:52:33;;;;;;;8.98;4.00;;;;;;;;;;5127749;27;20106;-66
2023/04/20 13:54:59;;;;;;;7.95;3.95;;;;;;;;;;5128867;27;20106;-68
2023/04/20 13:57:24;;;;;;;7.80;3.90;;;;;;;;;;5128558;27;20026;-68
2023/04/20 13:59:50;;;;;;;13.57;4.20;;;;;;;;;;5128642;27;20031;-67
2023/04/20 14:02:15;;;;;;;13.48;4.85;;;;;;;;;;5136622;27;20033;-65
2023/04/20 14:04:41;;;;;;;14.32;5.93;;;;;;;;;;5152757;27;20030;-63
2023/04/20 14:07:06;;;;;;;10.65;4.20;;;;;;;;;;5153353;27;20026;-65
2023/04/20 14:09:32;;;;;;;10.63;4.15;;;;;;;;;;5152561;27;20026;-69
2023/04/20 14:11:58;;;;;;;9.43;3.85;;;;;;;;;;5153091;27;20023;-65
2023/04/20 14:14:24;;;;;;;16.75;3.80;;;;;;;;;;5152845;27;20018;-65
2023/04/20 14:16:50;;;;;;;13.88;3.65;;;;;;;;;;5152864;27;20031;-70
2023/04/20 14:19:15;;;;;;;8.05;3.50;;;;;;;;;;5152542;27;20053;-67
2023/04/20 14:21:43;;;;;;;9.88;3.95;;;;;;;;;;5153100;27;20023;-66
2023/04/20 14:24:12;;;;;;;11.18;3.53;;;;;;;;;;5152908;27;20058;-68
2023/04/20 14:26:38;;;;;;;8.63;3.67;;;;;;;;;;5153213;27;20472;-66